If you wish to contribute or participate in the discussions about articles you are invited to join SKYbrary as a registered user

 Actions

Saint-Nazaire-Montoir Airport

From SKYbrary Wiki

LFRZ /
Revision as of 20:14, 16 February 2015 by Timo.Kouwenhoven (talk | contribs) (LF Airports CSV import)
(diff) ← Older revision | Latest revision (diff) | Newer revision → (diff)
Airport
ICAO: LFRZ – IATA: SNR
Summary
Name Saint-Nazaire-Montoir Airport
Region Europe
Territory France FR.gif
Location , Pays de la Loire
Serving St.-nazaire
Elevation 3.962 m
13 ft
13 ft3.962 m
Type medium airport
Coordinates 47° 18' 43.88" N, 2° 8' 57.05" W
Runways
Designator Length Width Surface ROPS
8/26 2400 m7,874.016 ft
45 m147.638 ft
ASP /


METAR
Observation LFRZ 202330Z AUTO 10012KT 9000 NSC 20/07 Q1011 NOSIG
Station St-Nazaire
Date/Time 20 September 2019 23:30:00
Wind direction 100°
Wind speed 12 kts
Lowest cloud amount nil significant cloud
Temperature 20°C
Dew point 7°C
Humidity 42%
QNH 1011 hPa
Weather condition n/a